sensor_id;sensor_type;location;lat;lon;timestamp;temperature;humidity
1011;DHT22;494;48.744;10.106;2023-03-01T00:00:09;0.80;34.00
1011;DHT22;494;48.744;10.106;2023-03-01T00:02:38;0.90;33.20
1011;DHT22;494;48.744;10.106;2023-03-01T00:05:07;1.10;33.00
1011;DHT22;494;48.744;10.106;2023-03-01T00:07:36;0.90;33.00
1011;DHT22;494;48.744;10.106;2023-03-01T00:10:07;0.90;33.20
1011;DHT22;494;48.744;10.106;2023-03-01T00:12:37;0.90;33.00
1011;DHT22;494;48.744;10.106;2023-03-01T00:15:06;0.80;33.20
1011;DHT22;494;48.744;10.106;2023-03-01T00:17:36;0.70;33.50
1011;DHT22;494;48.744;10.106;2023-03-01T00:20:05;0.80;33.80
1011;DHT22;494;48.744;10.106;2023-03-01T00:22:37;0.80;33.70
1011;DHT22;494;48.744;10.106;2023-03-01T00:25:07;0.80;34.00
1011;DHT22;494;48.744;10.106;2023-03-01T00:27:36;0.70;33.90
1011;DHT22;494;48.744;10.106;2023-03-01T00:30:06;0.80;33.90
1011;DHT22;494;48.744;10.106;2023-03-01T00:32:35;0.80;34.40
1011;DHT22;494;48.744;10.106;2023-03-01T00:35:04;0.90;34.60
1011;DHT22;494;48.744;10.106;2023-03-01T00:37:33;0.90;34.60
1011;DHT22;494;48.744;10.106;2023-03-01T00:40:02;1.00;34.60
1011;DHT22;494;48.744;10.106;2023-03-01T00:42:34;1.00;34.30
1011;DHT22;494;48.744;10.106;2023-03-01T00:45:04;1.20;34.20
1011;DHT22;494;48.744;10.106;2023-03-01T00:47:34;1.20;33.90
1011;DHT22;494;48.744;10.106;2023-03-01T00:50:03;1.30;33.80
1011;DHT22;494;48.744;10.106;2023-03-01T00:52:33;1.30;33.80
1011;DHT22;494;48.744;10.106;2023-03-01T00:55:02;1.30;33.60
1011;DHT22;494;48.744;10.106;2023-03-01T00:57:31;1.50;33.70
1011;DHT22;494;48.744;10.106;2023-03-01T01:00:02;1.40;33.80
1011;DHT22;494;48.744;10.106;2023-03-01T01:02:32;1.60;33.60
1011;DHT22;494;48.744;10.106;2023-03-01T01:05:02;1.60;33.50
1011;DHT22;494;48.744;10.106;2023-03-01T01:07:31;1.70;33.30
1011;DHT22;494;48.744;10.106;2023-03-01T01:10:00;1.80;33.30
1011;DHT22;494;48.744;10.106;2023-03-01T01:12:29;1.90;33.20
1011;DHT22;494;48.744;10.106;2023-03-01T01:14:58;2.00;33.10
1011;DHT22;494;48.744;10.106;2023-03-01T01:17:28;2.00;32.90
1011;DHT22;494;48.744;10.106;2023-03-01T01:19:58;2.00;32.90
1011;DHT22;494;48.744;10.106;2023-03-01T01:22:27;2.00;32.70
1011;DHT22;494;48.744;10.106;2023-03-01T01:24:56;2.00;32.50
1011;DHT22;494;48.744;10.106;2023-03-01T01:27:25;2.00;33.00
1011;DHT22;494;48.744;10.106;2023-03-01T01:29:53;2.00;33.10
1011;DHT22;494;48.744;10.106;2023-03-01T01:32:22;2.10;33.40
1011;DHT22;494;48.744;10.106;2023-03-01T01:34:54;2.30;33.30
1011;DHT22;494;48.744;10.106;2023-03-01T01:37:23;2.20;32.90
1011;DHT22;494;48.744;10.106;2023-03-01T01:39:58;2.30;32.50
1011;DHT22;494;48.744;10.106;2023-03-01T01:42:27;2.50;32.30
1011;DHT22;494;48.744;10.106;2023-03-01T01:45:24;2.60;32.10
1011;DHT22;494;48.744;10.106;2023-03-01T01:47:58;2.50;31.70
1011;DHT22;494;48.744;10.106;2023-03-01T01:50:34;2.50;31.50
1011;DHT22;494;48.744;10.106;2023-03-01T01:53:08;2.50;31.50
1011;DHT22;494;48.744;10.106;2023-03-01T01:55:43;2.70;31.30
1011;DHT22;494;48.744;10.106;2023-03-01T01:58:16;2.70;30.60
1011;DHT22;494;48.744;10.106;2023-03-01T02:00:47;2.70;30.40
1011;DHT22;494;48.744;10.106;2023-03-01T02:03:19;2.70;29.90
1011;DHT22;494;48.744;10.106;2023-03-01T02:05:57;2.80;30.20
1011;DHT22;494;48.744;10.106;2023-03-01T02:08:32;2.70;30.20
1011;DHT22;494;48.744;10.106;2023-03-01T02:11:05;2.50;30.30
1011;DHT22;494;48.744;10.106;2023-03-01T02:13:35;2.60;30.10
1011;DHT22;494;48.744;10.106;2023-03-01T02:16:05;2.70;29.80
1011;DHT22;494;48.744;10.106;2023-03-01T02:18:38;2.60;30.30
1011;DHT22;494;48.744;10.106;2023-03-01T02:21:20;2.80;29.60
1011;DHT22;494;48.744;10.106;2023-03-01T02:24:03;2.90;29.70
1011;DHT22;494;48.744;10.106;2023-03-01T02:26:48;2.70;29.60
1011;DHT22;494;48.744;10.106;2023-03-01T02:29:21;2.80;29.60
1011;DHT22;494;48.744;10.106;2023-03-01T02:31:52;2.80;29.30
1011;DHT22;494;48.744;10.106;2023-03-01T02:34:25;2.90;29.10
1011;DHT22;494;48.744;10.106;2023-03-01T02:36:58;2.90;28.70
1011;DHT22;494;48.744;10.106;2023-03-01T02:39:34;2.90;28.80
1011;DHT22;494;48.744;10.106;2023-03-01T02:42:12;3.00;28.60
1011;DHT22;494;48.744;10.106;2023-03-01T02:44:44;2.90;28.70
1011;DHT22;494;48.744;10.106;2023-03-01T02:47:12;2.90;28.90
1011;DHT22;494;48.744;10.106;2023-03-01T02:49:41;3.00;28.80
1011;DHT22;494;48.744;10.106;2023-03-01T02:52:34;3.00;28.60
1011;DHT22;494;48.744;10.106;2023-03-01T02:55:14;3.00;28.40
1011;DHT22;494;48.744;10.106;2023-03-01T02:57:46;3.20;28.50
1011;DHT22;494;48.744;10.106;2023-03-01T03:00:21;2.80;28.50
1011;DHT22;494;48.744;10.106;2023-03-01T03:02:53;2.80;28.90
1011;DHT22;494;48.744;10.106;2023-03-01T03:05:25;2.80;28.70
1011;DHT22;494;48.744;10.106;2023-03-01T03:07:56;3.00;28.70
1011;DHT22;494;48.744;10.106;2023-03-01T03:10:28;2.80;28.90
1011;DHT22;494;48.744;10.106;2023-03-01T03:13:00;3.10;29.00
1011;DHT22;494;48.744;10.106;2023-03-01T03:15:31;3.00;29.00
1011;DHT22;494;48.744;10.106;2023-03-01T03:18:04;3.10;29.70
1011;DHT22;494;48.744;10.106;2023-03-01T03:20:36;2.90;28.80
1011;DHT22;494;48.744;10.106;2023-03-01T03:23:07;3.10;28.80
1011;DHT22;494;48.744;10.106;2023-03-01T03:25:36;3.00;28.60
1011;DHT22;494;48.744;10.106;2023-03-01T03:28:06;3.10;28.60
1011;DHT22;494;48.744;10.106;2023-03-01T03:30:40;3.20;28.40
1011;DHT22;494;48.744;10.106;2023-03-01T03:33:10;3.00;28.10
1011;DHT22;494;48.744;10.106;2023-03-01T03:35:42;3.20;28.10
1011;DHT22;494;48.744;10.106;2023-03-01T03:38:14;3.20;27.60
1011;DHT22;494;48.744;10.106;2023-03-01T03:40:47;3.20;27.50
1011;DHT22;494;48.744;10.106;2023-03-01T03:43:18;3.30;27.50
1011;DHT22;494;48.744;10.106;2023-03-01T03:45:50;3.40;27.20
1011;DHT22;494;48.744;10.106;2023-03-01T03:48:20;3.30;27.10
1011;DHT22;494;48.744;10.106;2023-03-01T03:50:51;3.30;27.40
1011;DHT22;494;48.744;10.106;2023-03-01T03:53:22;3.30;27.50
1011;DHT22;494;48.744;10.106;2023-03-01T03:55:52;3.40;27.70
1011;DHT22;494;48.744;10.106;2023-03-01T03:58:22;3.50;27.60
1011;DHT22;494;48.744;10.106;2023-03-01T04:00:54;3.40;26.90
1011;DHT22;494;48.744;10.106;2023-03-01T04:03:26;3.30;27.20
1011;DHT22;494;48.744;10.106;2023-03-01T04:05:57;3.40;27.10
1011;DHT22;494;48.744;10.106;2023-03-01T04:08:27;3.40;27.00
1011;DHT22;494;48.744;10.106;2023-03-01T04:10:58;3.50;27.00
1011;DHT22;494;48.744;10.106;2023-03-01T04:13:48;3.50;26.80
1011;DHT22;494;48.744;10.106;2023-03-01T04:16:19;3.60;26.60
1011;DHT22;494;48.744;10.106;2023-03-01T04:18:47;3.50;26.60
1011;DHT22;494;48.744;10.106;2023-03-01T04:21:16;3.60;26.60
1011;DHT22;494;48.744;10.106;2023-03-01T04:23:47;3.60;26.50
1011;DHT22;494;48.744;10.106;2023-03-01T04:26:19;3.60;26.20
1011;DHT22;494;48.744;10.106;2023-03-01T04:28:48;3.60;26.80
1011;DHT22;494;48.744;10.106;2023-03-01T04:31:19;3.60;26.10
1011;DHT22;494;48.744;10.106;2023-03-01T04:33:50;3.80;25.90
1011;DHT22;494;48.744;10.106;2023-03-01T04:36:21;3.60;26.10
1011;DHT22;494;48.744;10.106;2023-03-01T04:38:52;3.60;26.10
1011;DHT22;494;48.744;10.106;2023-03-01T04:41:22;3.80;26.20
1011;DHT22;494;48.744;10.106;2023-03-01T04:43:52;3.80;26.00
1011;DHT22;494;48.744;10.106;2023-03-01T04:46:22;3.80;26.00
1011;DHT22;494;48.744;10.106;2023-03-01T04:48:52;3.90;26.10
1011;DHT22;494;48.744;10.106;2023-03-01T04:51:21;3.90;26.00
1011;DHT22;494;48.744;10.106;2023-03-01T04:53:49;3.80;25.80
1011;DHT22;494;48.744;10.106;2023-03-01T04:56:18;4.00;25.80
1011;DHT22;494;48.744;10.106;2023-03-01T04:58:47;3.80;25.70
1011;DHT22;494;48.744;10.106;2023-03-01T05:01:18;3.80;25.70
1011;DHT22;494;48.744;10.106;2023-03-01T05:03:50;3.80;25.40
1011;DHT22;494;48.744;10.106;2023-03-01T05:06:20;3.80;25.40
1011;DHT22;494;48.744;10.106;2023-03-01T05:08:49;3.60;25.60
1011;DHT22;494;48.744;10.106;2023-03-01T05:11:18;3.60;25.60
1011;DHT22;494;48.744;10.106;2023-03-01T05:13:46;3.60;25.60
1011;DHT22;494;48.744;10.106;2023-03-01T05:16:16;3.50;26.10
1011;DHT22;494;48.744;10.106;2023-03-01T05:18:46;3.40;26.10
1011;DHT22;494;48.744;10.106;2023-03-01T05:21:18;3.60;26.10
1011;DHT22;494;48.744;10.106;2023-03-01T05:23:47;3.60;26.00
1011;DHT22;494;48.744;10.106;2023-03-01T05:26:17;3.60;25.90
1011;DHT22;494;48.744;10.106;2023-03-01T05:29:05;3.60;25.70
1011;DHT22;494;48.744;10.106;2023-03-01T05:31:36;3.60;25.70
1011;DHT22;494;48.744;10.106;2023-03-01T05:34:07;3.60;25.60
1011;DHT22;494;48.744;10.106;2023-03-01T05:36:36;3.60;25.60
1011;DHT22;494;48.744;10.106;2023-03-01T05:39:06;3.60;25.50
1011;DHT22;494;48.744;10.106;2023-03-01T05:41:35;3.30;26.10
1011;DHT22;494;48.744;10.106;2023-03-01T05:44:06;3.20;26.30
1011;DHT22;494;48.744;10.106;2023-03-01T05:46:35;3.10;26.60
1011;DHT22;494;48.744;10.106;2023-03-01T05:49:04;3.00;26.60
1011;DHT22;494;48.744;10.106;2023-03-01T05:51:36;3.00;26.70
1011;DHT22;494;48.744;10.106;2023-03-01T05:54:05;3.00;26.80
1011;DHT22;494;48.744;10.106;2023-03-01T05:56:35;3.20;27.00
1011;DHT22;494;48.744;10.106;2023-03-01T05:59:05;3.00;27.00
1011;DHT22;494;48.744;10.106;2023-03-01T06:01:35;2.90;27.10
1011;DHT22;494;48.744;10.106;2023-03-01T06:04:04;2.90;27.10
1011;DHT22;494;48.744;10.106;2023-03-01T06:06:35;2.90;27.30
1011;DHT22;494;48.744;10.106;2023-03-01T06:09:06;2.90;27.30
1011;DHT22;494;48.744;10.106;2023-03-01T06:11:36;2.90;27.30
1011;DHT22;494;48.744;10.106;2023-03-01T06:14:06;2.80;27.30
1011;DHT22;494;48.744;10.106;2023-03-01T06:16:37;2.80;27.50
1011;DHT22;494;48.744;10.106;2023-03-01T06:19:06;2.80;27.50
1011;DHT22;494;48.744;10.106;2023-03-01T06:21:36;2.90;27.60
1011;DHT22;494;48.744;10.106;2023-03-01T06:24:05;2.60;27.70
1011;DHT22;494;48.744;10.106;2023-03-01T06:26:35;2.60;27.80
1011;DHT22;494;48.744;10.106;2023-03-01T06:29:04;2.60;28.20
1011;DHT22;494;48.744;10.106;2023-03-01T06:31:33;2.60;28.10
1011;DHT22;494;48.744;10.106;2023-03-01T06:34:03;2.80;28.20
1011;DHT22;494;48.744;10.106;2023-03-01T06:36:31;2.80;28.10
1011;DHT22;494;48.744;10.106;2023-03-01T06:39:02;2.70;28.10
1011;DHT22;494;48.744;10.106;2023-03-01T06:41:32;2.70;28.50
1011;DHT22;494;48.744;10.106;2023-03-01T06:44:01;2.90;28.90
1011;DHT22;494;48.744;10.106;2023-03-01T06:46:30;3.00;28.60
1011;DHT22;494;48.744;10.106;2023-03-01T06:49:00;3.10;28.30
1011;DHT22;494;48.744;10.106;2023-03-01T06:51:43;3.10;27.80
1011;DHT22;494;48.744;10.106;2023-03-01T06:54:15;3.30;27.40
1011;DHT22;494;48.744;10.106;2023-03-01T06:56:47;3.40;26.70
1011;DHT22;494;48.744;10.106;2023-03-01T06:59:19;3.80;26.60
1011;DHT22;494;48.744;10.106;2023-03-01T07:01:48;3.90;25.80
1011;DHT22;494;48.744;10.106;2023-03-01T07:04:17;3.90;24.90
1011;DHT22;494;48.744;10.106;2023-03-01T07:06:46;4.10;24.50
1011;DHT22;494;48.744;10.106;2023-03-01T07:09:24;4.00;23.90
1011;DHT22;494;48.744;10.106;2023-03-01T07:11:53;4.00;23.10
1011;DHT22;494;48.744;10.106;2023-03-01T07:14:21;4.30;22.90
1011;DHT22;494;48.744;10.106;2023-03-01T07:16:51;4.70;22.80
1011;DHT22;494;48.744;10.106;2023-03-01T07:19:20;4.80;21.20
1011;DHT22;494;48.744;10.106;2023-03-01T07:21:49;5.00;20.70
1011;DHT22;494;48.744;10.106;2023-03-01T07:24:18;5.20;20.30
1011;DHT22;494;48.744;10.106;2023-03-01T07:26:50;5.10;19.80
1011;DHT22;494;48.744;10.106;2023-03-01T07:29:19;5.30;19.60
1011;DHT22;494;48.744;10.106;2023-03-01T07:31:47;5.60;18.90
1011;DHT22;494;48.744;10.106;2023-03-01T07:34:16;5.70;18.80
1011;DHT22;494;48.744;10.106;2023-03-01T07:36:45;5.90;18.20
1011;DHT22;494;48.744;10.106;2023-03-01T07:39:14;6.00;17.90
1011;DHT22;494;48.744;10.106;2023-03-01T07:41:45;5.90;17.30
1011;DHT22;494;48.744;10.106;2023-03-01T07:44:15;5.90;17.50
1011;DHT22;494;48.744;10.106;2023-03-01T07:46:44;6.10;17.50
1011;DHT22;494;48.744;10.106;2023-03-01T07:49:13;6.30;17.30
1011;DHT22;494;48.744;10.106;2023-03-01T07:51:43;6.30;17.40
1011;DHT22;494;48.744;10.106;2023-03-01T07:54:11;6.60;16.00
1011;DHT22;494;48.744;10.106;2023-03-01T07:56:40;6.50;16.30
1011;DHT22;494;48.744;10.106;2023-03-01T07:59:08;6.70;16.10
1011;DHT22;494;48.744;10.106;2023-03-01T08:01:39;6.70;15.60
1011;DHT22;494;48.744;10.106;2023-03-01T08:04:07;6.90;15.60
1011;DHT22;494;48.744;10.106;2023-03-01T08:06:37;7.10;15.40
1011;DHT22;494;48.744;10.106;2023-03-01T08:09:05;7.00;14.70
1011;DHT22;494;48.744;10.106;2023-03-01T08:11:35;7.30;15.00
1011;DHT22;494;48.744;10.106;2023-03-01T08:14:05;7.80;14.40
1011;DHT22;494;48.744;10.106;2023-03-01T08:16:34;7.70;14.20
1011;DHT22;494;48.744;10.106;2023-03-01T08:19:05;7.80;13.80
1011;DHT22;494;48.744;10.106;2023-03-01T08:21:34;8.00;13.50
1011;DHT22;494;48.744;10.106;2023-03-01T08:24:04;7.90;13.20
1011;DHT22;494;48.744;10.106;2023-03-01T08:26:34;7.90;13.20
1011;DHT22;494;48.744;10.106;2023-03-01T08:29:03;8.10;13.00
1011;DHT22;494;48.744;10.106;2023-03-01T08:31:34;8.10;13.10
1011;DHT22;494;48.744;10.106;2023-03-01T08:34:07;8.20;13.30
1011;DHT22;494;48.744;10.106;2023-03-01T08:36:39;8.50;12.40
1011;DHT22;494;48.744;10.106;2023-03-01T08:39:10;8.70;11.90
1011;DHT22;494;48.744;10.106;2023-03-01T08:41:40;8.90;11.50
1011;DHT22;494;48.744;10.106;2023-03-01T08:44:10;8.80;10.70
1011;DHT22;494;48.744;10.106;2023-03-01T08:46:41;8.70;11.00
1011;DHT22;494;48.744;10.106;2023-03-01T08:49:15;8.70;11.20
1011;DHT22;494;48.744;10.106;2023-03-01T08:51:46;8.70;11.00
1011;DHT22;494;48.744;10.106;2023-03-01T08:54:17;8.80;10.20
1011;DHT22;494;48.744;10.106;2023-03-01T08:56:47;8.90;10.30
1011;DHT22;494;48.744;10.106;2023-03-01T08:59:17;8.60;10.60
1011;DHT22;494;48.744;10.106;2023-03-01T09:01:46;8.60;10.60
1011;DHT22;494;48.744;10.106;2023-03-01T09:04:16;8.80;10.10
1011;DHT22;494;48.744;10.106;2023-03-01T09:06:45;9.10;10.60
1011;DHT22;494;48.744;10.106;2023-03-01T09:09:16;9.40;10.00
1011;DHT22;494;48.744;10.106;2023-03-01T09:11:46;10.00;9.30
1011;DHT22;494;48.744;10.106;2023-03-01T09:14:17;10.30;8.20
1011;DHT22;494;48.744;10.106;2023-03-01T09:16:45;10.50;8.20
1011;DHT22;494;48.744;10.106;2023-03-01T09:19:15;10.60;7.60
1011;DHT22;494;48.744;10.106;2023-03-01T09:21:44;10.80;7.70
1011;DHT22;494;48.744;10.106;2023-03-01T09:24:20;11.10;7.50
1011;DHT22;494;48.744;10.106;2023-03-01T09:26:51;11.50;6.70
1011;DHT22;494;48.744;10.106;2023-03-01T09:29:22;11.70;5.80
1011;DHT22;494;48.744;10.106;2023-03-01T09:31:50;11.50;6.00
1011;DHT22;494;48.744;10.106;2023-03-01T09:34:23;11.30;6.30
1011;DHT22;494;48.744;10.106;2023-03-01T09:36:52;11.30;6.10
1011;DHT22;494;48.744;10.106;2023-03-01T09:39:20;11.10;6.30
1011;DHT22;494;48.744;10.106;2023-03-01T09:41:54;10.80;6.90
1011;DHT22;494;48.744;10.106;2023-03-01T09:44:36;10.60;7.10
1011;DHT22;494;48.744;10.106;2023-03-01T09:47:15;10.70;6.40
1011;DHT22;494;48.744;10.106;2023-03-01T09:49:59;10.90;7.00
1011;DHT22;494;48.744;10.106;2023-03-01T09:52:38;11.20;6.60
1011;DHT22;494;48.744;10.106;2023-03-01T09:55:13;11.60;6.20
1011;DHT22;494;48.744;10.106;2023-03-01T09:57:47;12.00;6.30
1011;DHT22;494;48.744;10.106;2023-03-01T10:00:31;12.40;5.20
1011;DHT22;494;48.744;10.106;2023-03-01T10:03:16;13.00;4.20
1011;DHT22;494;48.744;10.106;2023-03-01T10:05:57;13.50;4.10
1011;DHT22;494;48.744;10.106;2023-03-01T10:08:34;13.70;3.60
1011;DHT22;494;48.744;10.106;2023-03-01T10:11:19;13.80;3.20
1011;DHT22;494;48.744;10.106;2023-03-01T10:14:03;14.40;2.20
1011;DHT22;494;48.744;10.106;2023-03-01T10:16:41;14.90;2.10
1011;DHT22;494;48.744;10.106;2023-03-01T10:19:20;15.50;1.20
1011;DHT22;494;48.744;10.106;2023-03-01T10:21:53;15.40;1.60
1011;DHT22;494;48.744;10.106;2023-03-01T10:24:34;15.40;1.10
1011;DHT22;494;48.744;10.106;2023-03-01T10:27:07;14.80;2.10
1011;DHT22;494;48.744;10.106;2023-03-01T10:29:45;14.90;2.10
1011;DHT22;494;48.744;10.106;2023-03-01T10:32:18;15.30;1.30
1011;DHT22;494;48.744;10.106;2023-03-01T10:34:51;15.80;1.20
1011;DHT22;494;48.744;10.106;2023-03-01T10:37:21;16.30;1.00
1011;DHT22;494;48.744;10.106;2023-03-01T10:40:00;16.60;1.00
1011;DHT22;494;48.744;10.106;2023-03-01T10:42:37;16.60;1.00
1011;DHT22;494;48.744;10.106;2023-03-01T10:45:27;16.80;1.00
1011;DHT22;494;48.744;10.106;2023-03-01T10:48:13;16.40;1.00
1011;DHT22;494;48.744;10.106;2023-03-01T10:50:44;16.40;1.00
1011;DHT22;494;48.744;10.106;2023-03-01T10:53:23;16.70;1.00
1011;DHT22;494;48.744;10.106;2023-03-01T10:56:01;17.20;1.00
1011;DHT22;494;48.744;10.106;2023-03-01T10:58:32;17.80;1.00
1011;DHT22;494;48.744;10.106;2023-03-01T11:01:03;18.50;1.00
1011;DHT22;494;48.744;10.106;2023-03-01T11:03:34;18.80;1.00
1011;DHT22;494;48.744;10.106;2023-03-01T11:06:12;18.90;1.00
1011;DHT22;494;48.744;10.106;2023-03-01T11:08:51;19.20;1.00
1011;DHT22;494;48.744;10.106;2023-03-01T11:11:29;19.60;1.00
1011;DHT22;494;48.744;10.106;2023-03-01T11:14:03;19.60;1.00
1011;DHT22;494;48.744;10.106;2023-03-01T11:16:59;19.50;1.00
1011;DHT22;494;48.744;10.106;2023-03-01T11:19:30;19.50;1.00
1011;DHT22;494;48.744;10.106;2023-03-01T11:22:03;19.30;1.00
1011;DHT22;494;48.744;10.106;2023-03-01T11:24:43;19.40;1.00
1011;DHT22;494;48.744;10.106;2023-03-01T11:27:21;19.50;1.00
1011;DHT22;494;48.744;10.106;2023-03-01T11:29:57;19.70;1.00
1011;DHT22;494;48.744;10.106;2023-03-01T11:32:35;19.50;1.00
1011;DHT22;494;48.744;10.106;2023-03-01T11:35:16;19.30;1.00
1011;DHT22;494;48.744;10.106;2023-03-01T11:37:58;19.30;1.00
1011;DHT22;494;48.744;10.106;2023-03-01T11:40:34;19.30;1.00
1011;DHT22;494;48.744;10.106;2023-03-01T11:43:14;19.70;1.00
1011;DHT22;494;48.744;10.106;2023-03-01T11:49:03;20.00;1.00
1011;DHT22;494;48.744;10.106;2023-03-01T11:51:51;20.70;1.00
1011;DHT22;494;48.744;10.106;2023-03-01T11:54:37;21.50;1.00
1011;DHT22;494;48.744;10.106;2023-03-01T11:57:33;21.20;1.00
1011;DHT22;494;48.744;10.106;2023-03-01T12:00:20;20.80;1.00
1011;DHT22;494;48.744;10.106;2023-03-01T12:03:24;21.20;1.00
1011;DHT22;494;48.744;10.106;2023-03-01T12:06:34;20.90;1.00
1011;DHT22;494;48.744;10.106;2023-03-01T12:09:21;21.10;1.00
1011;DHT22;494;48.744;10.106;2023-03-01T12:21:30;21.40;1.00
1011;DHT22;494;48.744;10.106;2023-03-01T12:24:24;21.50;1.00
1011;DHT22;494;48.744;10.106;2023-03-01T12:27:17;21.40;1.00
1011;DHT22;494;48.744;10.106;2023-03-01T12:30:01;20.60;1.00
1011;DHT22;494;48.744;10.106;2023-03-01T12:32:49;20.50;1.00
1011;DHT22;494;48.744;10.106;2023-03-01T12:35:47;20.60;1.00
1011;DHT22;494;48.744;10.106;2023-03-01T12:38:41;20.70;1.00
1011;DHT22;494;48.744;10.106;2023-03-01T12:41:40;20.50;1.00
1011;DHT22;494;48.744;10.106;2023-03-01T12:44:28;20.20;1.00
1011;DHT22;494;48.744;10.106;2023-03-01T12:47:13;20.40;1.00
1011;DHT22;494;48.744;10.106;2023-03-01T12:49:54;21.10;1.00
1011;DHT22;494;48.744;10.106;2023-03-01T12:52:33;21.40;1.00
1011;DHT22;494;48.744;10.106;2023-03-01T12:55:15;21.90;1.00
1011;DHT22;494;48.744;10.106;2023-03-01T12:57:56;22.00;1.00
1011;DHT22;494;48.744;10.106;2023-03-01T13:00:37;21.60;1.00
1011;DHT22;494;48.744;10.106;2023-03-01T13:03:19;21.90;1.00
1011;DHT22;494;48.744;10.106;2023-03-01T13:06:04;22.50;1.00
1011;DHT22;494;48.744;10.106;2023-03-01T13:08:41;22.50;1.00
1011;DHT22;494;48.744;10.106;2023-03-01T13:11:18;22.30;1.00
1011;DHT22;494;48.744;10.106;2023-03-01T13:13:49;22.30;1.00
1011;DHT22;494;48.744;10.106;2023-03-01T13:16:39;22.50;1.00
1011;DHT22;494;48.744;10.106;2023-03-01T13:19:14;23.20;1.00
1011;DHT22;494;48.744;10.106;2023-03-01T13:21:46;23.30;1.00
1011;DHT22;494;48.744;10.106;2023-03-01T13:24:26;22.90;1.00
1011;DHT22;494;48.744;10.106;2023-03-01T13:27:11;22.60;1.00
1011;DHT22;494;48.744;10.106;2023-03-01T13:29:53;22.90;1.00
1011;DHT22;494;48.744;10.106;2023-03-01T13:32:24;23.20;1.00
1011;DHT22;494;48.744;10.106;2023-03-01T13:35:42;23.30;1.00
1011;DHT22;494;48.744;10.106;2023-03-01T13:38:37;23.50;1.00
1011;DHT22;494;48.744;10.106;2023-03-01T13:41:13;22.90;1.00
1011;DHT22;494;48.744;10.106;2023-03-01T13:43:44;22.50;1.00
1011;DHT22;494;48.744;10.106;2023-03-01T13:46:20;22.60;1.00
1011;DHT22;494;48.744;10.106;2023-03-01T13:48:54;22.20;1.00
1011;DHT22;494;48.744;10.106;2023-03-01T13:51:27;22.10;1.00
1011;DHT22;494;48.744;10.106;2023-03-01T13:53:57;22.00;1.00
1011;DHT22;494;48.744;10.106;2023-03-01T13:56:28;22.00;1.00
1011;DHT22;494;48.744;10.106;2023-03-01T13:59:06;22.30;1.00
1011;DHT22;494;48.744;10.106;2023-03-01T14:01:41;22.20;1.00
1011;DHT22;494;48.744;10.106;2023-03-01T14:04:21;21.70;1.00
1011;DHT22;494;48.744;10.106;2023-03-01T14:06:52;21.90;1.00
1011;DHT22;494;48.744;10.106;2023-03-01T14:09:39;22.00;1.00
1011;DHT22;494;48.744;10.106;2023-03-01T14:12:31;21.90;1.00
1011;DHT22;494;48.744;10.106;2023-03-01T14:15:15;21.30;1.00
1011;DHT22;494;48.744;10.106;2023-03-01T14:17:52;21.50;1.00
1011;DHT22;494;48.744;10.106;2023-03-01T14:20:27;21.40;1.00
1011;DHT22;494;48.744;10.106;2023-03-01T14:23:02;21.40;1.00
1011;DHT22;494;48.744;10.106;2023-03-01T14:25:47;20.90;1.00
1011;DHT22;494;48.744;10.106;2023-03-01T14:28:19;20.90;1.00
1011;DHT22;494;48.744;10.106;2023-03-01T14:30:50;21.00;1.00
1011;DHT22;494;48.744;10.106;2023-03-01T14:33:26;20.90;1.00
1011;DHT22;494;48.744;10.106;2023-03-01T14:35:59;20.50;1.00
1011;DHT22;494;48.744;10.106;2023-03-01T14:38:33;20.50;1.00
1011;DHT22;494;48.744;10.106;2023-03-01T14:41:06;20.10;1.00
1011;DHT22;494;48.744;10.106;2023-03-01T14:43:37;20.20;1.00
1011;DHT22;494;48.744;10.106;2023-03-01T14:46:18;20.20;1.00
1011;DHT22;494;48.744;10.106;2023-03-01T14:48:50;20.30;1.00
1011;DHT22;494;48.744;10.106;2023-03-01T14:51:19;19.90;1.00
1011;DHT22;494;48.744;10.106;2023-03-01T14:53:50;19.80;1.00
1011;DHT22;494;48.744;10.106;2023-03-01T14:56:19;19.60;1.00
1011;DHT22;494;48.744;10.106;2023-03-01T14:58:51;19.20;1.00
1011;DHT22;494;48.744;10.106;2023-03-01T15:01:21;19.00;1.00
1011;DHT22;494;48.744;10.106;2023-03-01T15:03:51;19.10;1.00
1011;DHT22;494;48.744;10.106;2023-03-01T15:06:22;19.60;1.00
1011;DHT22;494;48.744;10.106;2023-03-01T15:08:54;19.70;1.00
1011;DHT22;494;48.744;10.106;2023-03-01T15:11:28;20.00;1.00
1011;DHT22;494;48.744;10.106;2023-03-01T15:13:58;20.20;1.00
1011;DHT22;494;48.744;10.106;2023-03-01T15:16:29;20.50;1.00
1011;DHT22;494;48.744;10.106;2023-03-01T15:19:01;20.50;1.00
1011;DHT22;494;48.744;10.106;2023-03-01T15:21:33;20.50;1.00
1011;DHT22;494;48.744;10.106;2023-03-01T15:24:06;20.20;1.00
1011;DHT22;494;48.744;10.106;2023-03-01T15:26:51;20.20;1.00
1011;DHT22;494;48.744;10.106;2023-03-01T15:29:23;19.80;1.00
1011;DHT22;494;48.744;10.106;2023-03-01T15:31:59;19.50;1.00
1011;DHT22;494;48.744;10.106;2023-03-01T15:34:35;19.60;1.00
1011;DHT22;494;48.744;10.106;2023-03-01T15:37:15;19.00;1.00
1011;DHT22;494;48.744;10.106;2023-03-01T15:40:20;17.80;1.00
1011;DHT22;494;48.744;10.106;2023-03-01T15:42:58;16.90;1.40
1011;DHT22;494;48.744;10.106;2023-03-01T15:45:28;16.60;1.60
1011;DHT22;494;48.744;10.106;2023-03-01T15:48:02;16.90;1.50
1011;DHT22;494;48.744;10.106;2023-03-01T15:50:34;17.20;1.00
1011;DHT22;494;48.744;10.106;2023-03-01T15:53:10;17.30;1.00
1011;DHT22;494;48.744;10.106;2023-03-01T15:55:42;16.70;1.50
1011;DHT22;494;48.744;10.106;2023-03-01T15:58:14;16.10;2.40
1011;DHT22;494;48.744;10.106;2023-03-01T16:00:46;15.60;3.10
1011;DHT22;494;48.744;10.106;2023-03-01T16:03:27;15.40;3.00
1011;DHT22;494;48.744;10.106;2023-03-01T16:05:56;15.30;3.30
1011;DHT22;494;48.744;10.106;2023-03-01T16:08:25;14.90;3.60
1011;DHT22;494;48.744;10.106;2023-03-01T16:10:54;14.80;3.80
1011;DHT22;494;48.744;10.106;2023-03-01T16:13:23;14.40;4.30
1011;DHT22;494;48.744;10.106;2023-03-01T16:15:54;13.60;5.50
1011;DHT22;494;48.744;10.106;2023-03-01T16:18:23;12.90;6.50
1011;DHT22;494;48.744;10.106;2023-03-01T16:20:51;12.30;7.20
1011;DHT22;494;48.744;10.106;2023-03-01T16:23:20;12.00;8.00
1011;DHT22;494;48.744;10.106;2023-03-01T16:25:51;11.70;9.10
1011;DHT22;494;48.744;10.106;2023-03-01T16:28:22;11.30;9.20
1011;DHT22;494;48.744;10.106;2023-03-01T16:30:51;11.10;9.70
1011;DHT22;494;48.744;10.106;2023-03-01T16:33:19;10.80;10.50
1011;DHT22;494;48.744;10.106;2023-03-01T16:35:59;10.70;10.10
1011;DHT22;494;48.744;10.106;2023-03-01T16:38:31;10.60;10.30
1011;DHT22;494;48.744;10.106;2023-03-01T16:41:03;10.50;11.10
1011;DHT22;494;48.744;10.106;2023-03-01T16:43:31;10.40;10.90
1011;DHT22;494;48.744;10.106;2023-03-01T16:46:00;10.40;10.90
1011;DHT22;494;48.744;10.106;2023-03-01T16:48:32;10.30;11.00
1011;DHT22;494;48.744;10.106;2023-03-01T16:51:02;10.10;11.50
1011;DHT22;494;48.744;10.106;2023-03-01T16:53:31;9.90;11.70
1011;DHT22;494;48.744;10.106;2023-03-01T16:56:04;9.80;11.90
1011;DHT22;494;48.744;10.106;2023-03-01T16:58:34;9.70;12.10
1011;DHT22;494;48.744;10.106;2023-03-01T17:01:05;9.70;12.20
1011;DHT22;494;48.744;10.106;2023-03-01T17:03:34;9.60;12.30
1011;DHT22;494;48.744;10.106;2023-03-01T17:06:04;9.60;12.40
1011;DHT22;494;48.744;10.106;2023-03-01T17:08:34;9.60;12.60
1011;DHT22;494;48.744;10.106;2023-03-01T17:11:09;9.40;12.70